Time;durP1;ratioP1;P1;durP2;ratioP2;P2;SDS_P1;SDS_P2;PMS_P1;PMS_P2;Temp;Humidity;BMP_temperature;BMP_pressure;BME280_temperature;BME280_humidity;BME280_pressure;Samples;Min_cycle;Max_cycle;Signal;HPM_P1;HPM_P2
2022/12/01 00:01:39;;;;;;;84.63;46.33;;;;;;;4.90;100.00;102869.41;4974464;28;20273;-73
2022/12/01 00:04:04;;;;;;;88.27;46.77;;;;;;;4.90;99.87;102861.78;4989542;28;20897;-73
2022/12/01 00:06:30;;;;;;;83.53;46.10;;;;;;;4.88;99.89;102864.22;4991096;28;20781;-73
2022/12/01 00:11:40;;;;;;;85.77;47.27;;;;;;;4.87;100.00;102867.53;4990658;28;20208;-73
2022/12/01 00:14:05;;;;;;;83.17;46.57;;;;;;;4.87;100.00;102861.56;4991256;28;20530;-74
2022/12/01 00:16:32;;;;;;;88.50;46.07;;;;;;;4.89;99.75;102865.13;4991919;28;20609;-72
2022/12/01 00:18:57;;;;;;;88.43;47.40;;;;;;;4.89;100.00;102868.53;4989948;28;20199;-74
2022/12/01 00:21:24;;;;;;;85.93;46.47;;;;;;;4.87;99.41;102869.16;4991167;28;20208;-74
2022/12/01 00:23:53;;;;;;;91.27;48.40;;;;;;;4.85;99.81;102869.09;4991683;28;20192;-73
2022/12/01 00:26:20;;;;;;;89.67;48.10;;;;;;;4.83;99.52;102860.44;4991259;28;20578;-72
2022/12/01 00:28:53;;;;;;;81.60;45.93;;;;;;;4.84;99.43;102859.69;4991331;28;20207;-73
2022/12/01 00:31:19;;;;;;;84.07;45.27;;;;;;;4.83;99.84;102857.91;4990618;28;20218;-72
2022/12/01 00:33:44;;;;;;;91.13;48.03;;;;;;;4.82;100.00;102858.69;4991907;28;20206;-73
2022/12/01 00:36:10;;;;;;;86.23;47.93;;;;;;;4.85;99.69;102863.13;4991895;28;20195;-73
2022/12/01 00:38:36;;;;;;;86.73;46.63;;;;;;;4.83;99.58;102860.44;4991082;28;20192;-73
2022/12/01 00:41:02;;;;;;;88.20;47.27;;;;;;;4.80;99.37;102860.25;4991203;28;20554;-72
2022/12/01 00:43:28;;;;;;;94.47;47.63;;;;;;;4.79;100.00;102863.53;4991467;28;20265;-73
2022/12/01 00:45:55;;;;;;;88.73;47.63;;;;;;;4.79;99.65;102860.13;4991588;28;20661;-73
2022/12/01 00:48:21;;;;;;;92.10;47.87;;;;;;;4.80;99.43;102864.44;4990410;28;20270;-73
2022/12/01 00:50:46;;;;;;;90.53;47.33;;;;;;;4.78;99.79;102858.38;4989712;28;20307;-71
2022/12/01 00:53:12;;;;;;;94.33;48.93;;;;;;;4.75;99.79;102869.13;4991027;28;20274;-72
2022/12/01 00:55:39;;;;;;;90.67;47.90;;;;;;;4.75;99.35;102868.28;4991242;28;20199;-74
2022/12/01 00:58:04;;;;;;;91.20;47.93;;;;;;;4.73;100.00;102869.78;4990426;28;20603;-70
2022/12/01 01:00:30;;;;;;;92.60;47.33;;;;;;;4.74;99.80;102869.91;4991171;28;20251;-73
2022/12/01 01:02:55;;;;;;;91.93;46.90;;;;;;;4.75;99.54;102870.81;4991298;28;20218;-73
2022/12/01 01:05:21;;;;;;;94.43;47.60;;;;;;;4.75;99.42;102874.22;4991131;28;20677;-71
2022/12/01 01:07:46;;;;;;;90.47;47.77;;;;;;;4.75;99.67;102869.13;4990849;28;20602;-73
2022/12/01 01:10:11;;;;;;;94.00;48.33;;;;;;;4.74;99.68;102867.38;4990780;28;20750;-73
2022/12/01 01:12:37;;;;;;;92.20;48.77;;;;;;;4.70;99.93;102870.44;4989219;28;20307;-72
2022/12/01 01:15:04;;;;;;;92.83;46.77;;;;;;;4.70;99.76;102872.13;4990921;28;20188;-74
2022/12/01 01:17:32;;;;;;;91.17;47.20;;;;;;;4.72;99.73;102878.19;4990734;28;20672;-73
2022/12/01 01:19:57;;;;;;;91.90;48.43;;;;;;;4.71;99.84;102872.25;4988980;28;20282;-72
2022/12/01 01:22:22;;;;;;;94.03;47.70;;;;;;;4.72;99.68;102883.25;4988767;28;20200;-74
2022/12/01 01:24:48;;;;;;;95.90;49.00;;;;;;;4.72;99.86;102888.34;4988398;28;20239;-73
2022/12/01 01:27:13;;;;;;;97.57;49.03;;;;;;;4.70;99.96;102894.97;4988980;28;20214;-73
2022/12/01 01:29:39;;;;;;;93.43;48.23;;;;;;;4.69;99.72;102891.53;4987324;28;20220;-73
2022/12/01 01:32:04;;;;;;;89.80;47.20;;;;;;;4.69;100.00;102889.00;4987314;28;20211;-72
2022/12/01 01:34:30;;;;;;;95.90;49.00;;;;;;;4.67;99.79;102898.16;4984384;28;20197;-73
2022/12/01 01:36:55;;;;;;;98.30;49.33;;;;;;;4.66;99.77;102898.03;4985516;28;20206;-73
2022/12/01 01:39:21;;;;;;;97.20;49.27;;;;;;;4.68;100.00;102891.41;4984365;28;20641;-73
2022/12/01 01:41:46;;;;;;;101.50;50.67;;;;;;;4.67;99.81;102892.19;4983930;28;20325;-73
2022/12/01 01:44:50;;;;;;;94.80;48.77;;;;;;;4.68;99.86;102899.00;4987023;28;20620;-74
2022/12/01 01:47:25;;;;;;;92.13;48.37;;;;;;;4.67;99.50;102899.78;4986232;28;20199;-73
2022/12/01 01:49:53;;;;;;;95.10;49.27;;;;;;;4.66;99.41;102900.56;4989214;28;20219;-73
2022/12/01 01:52:19;;;;;;;93.60;48.70;;;;;;;4.65;99.88;102899.66;4989715;28;20207;-72
2022/12/01 01:54:48;;;;;;;101.67;50.67;;;;;;;4.65;99.30;102901.34;4987584;28;20191;-74
2022/12/01 01:57:19;;;;;;;100.33;49.67;;;;;;;4.66;99.51;102901.47;4988197;28;20270;-72
2022/12/01 01:59:53;;;;;;;104.97;51.97;;;;;;;4.65;99.74;102896.25;4986146;28;20580;-74
2022/12/01 02:02:19;;;;;;;95.80;47.40;;;;;;;4.66;99.49;102895.50;4988955;28;20614;-73
2022/12/01 02:04:47;;;;;;;98.37;48.80;;;;;;;4.64;99.09;102891.94;4986486;28;20215;-73
2022/12/01 02:07:16;;;;;;;97.53;49.83;;;;;;;4.64;99.37;102900.44;4985972;28;20277;-71
2022/12/01 02:09:42;;;;;;;98.57;50.03;;;;;;;4.62;98.93;102896.03;4986779;28;20216;-72
2022/12/01 02:12:14;;;;;;;99.73;49.27;;;;;;;4.61;99.45;102897.66;4987342;28;20262;-74
2022/12/01 02:15:27;;;;;;;97.90;48.80;;;;;;;4.62;99.23;102899.47;4982926;28;20279;-73
2022/12/01 02:18:20;;;;;;;95.53;47.30;;;;;;;4.65;99.27;102904.75;5002577;28;20261;-73
2022/12/01 02:21:10;;;;;;;100.47;49.17;;;;;;;4.60;99.24;102907.72;4988460;28;20227;-71
2022/12/01 02:23:38;;;;;;;103.03;50.67;;;;;;;4.57;99.27;102902.41;4992433;28;20303;-73
2022/12/01 02:26:42;;;;;;;109.43;50.67;;;;;;;4.59;99.30;102905.94;4991382;28;20247;-72
2022/12/01 02:29:32;;;;;;;109.97;50.57;;;;;;;4.58;99.31;102901.63;4993582;28;20277;-72
2022/12/01 02:32:17;;;;;;;97.40;50.07;;;;;;;4.58;99.73;102901.63;4991594;28;20192;-73
2022/12/01 02:34:56;;;;;;;105.43;50.93;;;;;;;4.59;99.70;102898.31;4990789;28;20195;-73
2022/12/01 02:37:58;;;;;;;108.20;51.10;;;;;;;4.57;99.77;102900.75;4991077;28;20219;-73
2022/12/01 02:40:30;;;;;;;96.80;49.03;;;;;;;4.56;99.42;102900.63;4990552;28;20680;-73
2022/12/01 02:43:02;;;;;;;100.07;47.57;;;;;;;4.57;99.68;102902.41;4991310;28;20243;-74
2022/12/01 02:45:46;;;;;;;103.13;50.00;;;;;;;4.55;99.13;102897.22;4992337;28;20303;-73
2022/12/01 02:48:18;;;;;;;104.77;49.70;;;;;;;4.57;99.21;102899.88;4992087;28;20222;-73
2022/12/01 02:50:45;;;;;;;102.70;50.63;;;;;;;4.56;99.07;102901.50;4987052;28;20215;-74
2022/12/01 02:53:14;;;;;;;100.97;50.67;;;;;;;4.57;99.19;102902.41;4992149;28;20243;-72
2022/12/01 02:56:08;;;;;;;102.80;50.83;;;;;;;4.53;98.83;102901.28;4992624;28;20259;-71
2022/12/01 02:58:34;;;;;;;101.83;50.23;;;;;;;4.56;98.79;102891.34;4989816;28;20661;-73
2022/12/01 03:01:18;;;;;;;95.07;47.03;;;;;;;4.56;99.21;102886.28;4991547;28;20222;-74
2022/12/01 03:03:46;;;;;;;98.20;47.93;;;;;;;4.57;99.07;102887.19;4986518;28;20275;-73
2022/12/01 03:06:43;;;;;;;106.47;49.37;;;;;;;4.57;99.03;102883.00;4991447;28;20212;-72
2022/12/01 03:09:32;;;;;;;96.97;48.57;;;;;;;4.52;98.90;102889.34;4988037;28;20184;-72
2022/12/01 03:12:14;;;;;;;95.43;48.63;;;;;;;4.56;99.39;102896.44;4979379;28;20200;-73
2022/12/01 03:15:02;;;;;;;100.03;47.27;;;;;;;4.56;99.45;102898.09;4989446;28;20280;-73
2022/12/01 03:17:34;;;;;;;97.50;48.90;;;;;;;4.55;99.02;102907.34;4992566;28;20548;-72
2022/12/01 03:20:11;;;;;;;102.67;49.13;;;;;;;4.54;98.88;102900.53;4991137;28;20643;-73
2022/12/01 03:22:43;;;;;;;95.13;47.57;;;;;;;4.52;99.01;102909.66;4992604;28;20906;-74
2022/12/01 03:25:12;;;;;;;94.47;48.23;;;;;;;4.55;99.29;102902.28;4992071;28;20593;-73
2022/12/01 03:27:42;;;;;;;94.00;46.87;;;;;;;4.51;99.00;102897.75;4990743;28;20703;-72
2022/12/01 03:30:09;;;;;;;101.33;48.97;;;;;;;4.52;98.89;102906.25;4988135;28;20212;-73
2022/12/01 03:32:54;;;;;;;94.77;48.00;;;;;;;4.51;99.01;102901.94;4990617;28;20196;-73
2022/12/01 03:35:42;;;;;;;104.23;48.40;;;;;;;4.49;99.23;102894.22;4997112;28;20570;-72
2022/12/01 03:38:15;;;;;;;94.57;46.10;;;;;;;4.50;98.74;102895.97;4991895;28;20212;-73
2022/12/01 03:40:41;;;;;;;94.70;47.70;;;;;;;4.51;99.10;102890.13;4988743;28;20274;-71
2022/12/01 03:43:12;;;;;;;93.47;46.20;;;;;;;4.52;98.82;102891.03;4992904;28;20272;-74
2022/12/01 03:45:41;;;;;;;92.00;46.47;;;;;;;4.48;99.00;102902.59;4990675;28;20215;-74
2022/12/01 03:48:07;;;;;;;105.43;48.97;;;;;;;4.47;99.05;102898.25;4990627;28;20278;-72
2022/12/01 03:50:41;;;;;;;95.60;47.23;;;;;;;4.48;98.55;102895.00;4992251;28;20299;-74
2022/12/01 03:53:18;;;;;;;94.20;46.17;;;;;;;4.47;98.83;102900.81;4989677;28;20202;-73
2022/12/01 03:55:50;;;;;;;94.80;45.57;;;;;;;4.47;98.71;102900.81;4984913;28;20183;-73
2022/12/01 03:58:22;;;;;;;95.53;47.23;;;;;;;4.49;98.70;102898.38;4973778;28;20299;-73
2022/12/01 04:00:52;;;;;;;93.57;45.20;;;;;;;4.50;98.82;102900.16;4990774;28;20685;-72
2022/12/01 04:03:19;;;;;;;95.93;47.43;;;;;;;4.48;98.60;102897.53;4987574;28;20199;-73
2022/12/01 04:05:45;;;;;;;96.13;47.17;;;;;;;4.49;98.38;102901.81;4990895;28;20203;-73
2022/12/01 04:08:10;;;;;;;94.03;47.53;;;;;;;4.49;98.24;102899.28;4987121;28;20266;-74
2022/12/01 04:10:35;;;;;;;91.50;45.87;;;;;;;4.50;98.60;102901.03;4989704;28;20240;-74
2022/12/01 04:13:01;;;;;;;96.73;45.60;;;;;;;4.44;98.63;102895.50;4990427;28;20195;-74
2022/12/01 04:15:26;;;;;;;96.70;48.43;;;;;;;4.42;98.34;102899.56;4985742;28;20187;-73
2022/12/01 04:17:52;;;;;;;96.30;46.83;;;;;;;4.43;98.38;102900.47;4990011;28;20249;-73
2022/12/01 04:20:18;;;;;;;97.23;47.07;;;;;;;4.43;98.57;102897.94;4990616;28;20250;-73
2022/12/01 04:22:43;;;;;;;95.53;48.23;;;;;;;4.42;98.85;102899.56;4988597;28;20224;-73
2022/12/01 04:25:10;;;;;;;94.83;47.73;;;;;;;4.40;98.83;102890.97;4987015;28;20214;-73
2022/12/01 04:27:36;;;;;;;99.50;46.87;;;;;;;4.42;99.32;102902.09;4989252;28;20908;-73
2022/12/01 04:30:02;;;;;;;100.03;48.23;;;;;;;4.40;99.08;102901.13;4991270;28;20211;-73
2022/12/01 04:32:28;;;;;;;99.77;47.93;;;;;;;4.35;99.07;102897.34;4990029;28;20227;-73
2022/12/01 04:34:53;;;;;;;105.30;49.93;;;;;;;4.29;99.15;102907.03;4990584;28;20222;-73
2022/12/01 04:37:19;;;;;;;101.03;46.20;;;;;;;4.32;98.89;102907.25;4983102;28;20607;-73
2022/12/01 04:39:44;;;;;;;103.83;47.97;;;;;;;4.26;98.73;102904.25;4987115;28;20214;-72
2022/12/01 04:42:10;;;;;;;112.43;49.73;;;;;;;4.32;98.78;102903.84;4988644;28;20239;-72
2022/12/01 04:44:35;;;;;;;109.97;49.30;;;;;;;4.29;99.05;102898.53;4987896;28;20188;-73
2022/12/01 04:47:04;;;;;;;106.97;48.30;;;;;;;4.28;98.68;102907.78;4984671;28;20563;-73
2022/12/01 04:49:31;;;;;;;104.23;47.73;;;;;;;4.28;98.86;102905.22;4983237;28;20360;-74
2022/12/01 04:51:58;;;;;;;109.77;50.17;;;;;;;4.21;99.06;102909.72;4983131;28;20192;-73
2022/12/01 04:54:24;;;;;;;110.30;48.87;;;;;;;4.21;99.18;102909.72;4989770;28;20184;-73
2022/12/01 04:56:49;;;;;;;115.53;50.30;;;;;;;4.13;99.21;102910.75;4983873;28;20338;-72
2022/12/01 04:59:15;;;;;;;111.23;48.50;;;;;;;4.10;99.37;102908.88;4989297;28;20267;-73
2022/12/01 05:01:40;;;;;;;123.07;50.07;;;;;;;4.13;99.23;102905.69;4985747;28;20505;-73
2022/12/01 05:04:09;;;;;;;121.13;50.00;;;;;;;4.02;99.10;102907.41;4989690;28;20195;-73
2022/12/01 05:06:34;;;;;;;130.23;50.30;;;;;;;4.02;99.08;102902.34;4980107;28;20216;-73
2022/12/01 05:09:00;;;;;;;131.37;51.30;;;;;;;4.00;99.80;102908.06;4985840;28;20679;-73
2022/12/01 05:11:28;;;;;;;135.40;49.63;;;;;;;3.98;99.46;102914.63;4987854;28;20212;-73
2022/12/01 05:13:53;;;;;;;137.07;51.23;;;;;;;3.96;99.65;102911.09;4989435;28;20230;-72
2022/12/01 05:16:22;;;;;;;138.77;48.83;;;;;;;3.96;99.83;102913.66;4990255;28;20273;-73
2022/12/01 05:21:40;;;;;;;144.13;50.97;;;;;;;3.95;99.85;102904.28;4963880;28;20622;-73
2022/12/01 05:24:07;;;;;;;135.37;51.07;;;;;;;3.87;99.84;102918.84;4988718;28;20190;-73
2022/12/01 05:26:32;;;;;;;145.07;52.93;;;;;;;3.89;100.00;102917.34;4987979;28;20298;-73
2022/12/01 05:28:58;;;;;;;147.77;52.60;;;;;;;3.86;99.98;102927.22;4988333;28;20347;-74
2022/12/01 05:31:23;;;;;;;142.30;52.03;;;;;;;3.87;99.96;102923.91;4987022;28;20298;-73
2022/12/01 05:33:48;;;;;;;142.97;50.23;;;;;;;3.89;99.86;102916.44;4987385;28;20202;-73
2022/12/01 05:36:14;;;;;;;150.97;51.50;;;;;;;3.88;99.87;102922.28;4988779;28;20188;-73
2022/12/01 05:38:39;;;;;;;136.87;50.97;;;;;;;3.90;100.00;102924.16;4990236;28;20199;-72
2022/12/01 05:41:05;;;;;;;143.83;50.70;;;;;;;3.92;100.00;102921.75;4987825;28;20211;-73
2022/12/01 05:43:30;;;;;;;143.63;52.50;;;;;;;3.93;100.00;102931.13;4987687;28;20245;-71
2022/12/01 05:45:57;;;;;;;150.27;52.57;;;;;;;3.95;100.00;102929.63;4990108;28;20220;-73
2022/12/01 05:48:22;;;;;;;146.43;52.07;;;;;;;3.87;99.71;102931.50;4990582;28;20209;-72
2022/12/01 05:50:48;;;;;;;155.73;53.23;;;;;;;3.87;99.69;102939.13;4988633;28;20669;-72
2022/12/01 05:53:14;;;;;;;146.57;52.23;;;;;;;3.83;100.00;102934.59;4989399;28;20759;-73
2022/12/01 05:55:39;;;;;;;153.83;52.20;;;;;;;3.79;99.98;102939.28;4990362;28;20593;-72
2022/12/01 05:58:05;;;;;;;151.20;50.60;;;;;;;3.80;100.00;102938.50;4990183;28;20223;-73
2022/12/01 06:00:31;;;;;;;153.07;51.60;;;;;;;3.73;100.00;102933.75;4989938;28;20219;-71
2022/12/01 06:02:56;;;;;;;147.83;50.67;;;;;;;3.79;100.00;102939.28;4984470;28;20230;-73
2022/12/01 06:05:22;;;;;;;162.37;53.37;;;;;;;3.76;100.00;102947.53;4989745;28;20215;-73
2022/12/01 06:07:47;;;;;;;153.30;52.00;;;;;;;3.76;100.00;102947.53;4988954;28;20198;-72
2022/12/01 06:10:13;;;;;;;155.60;51.80;;;;;;;3.70;100.00;102941.06;4988607;28;20294;-73
2022/12/01 06:12:38;;;;;;;153.23;53.37;;;;;;;3.65;100.00;102943.25;4989705;28;20199;-73
2022/12/01 06:15:05;;;;;;;154.40;53.60;;;;;;;3.70;100.00;102943.63;4989859;28;20271;-73
2022/12/01 06:17:31;;;;;;;150.33;51.17;;;;;;;3.72;100.00;102944.63;4990149;28;20243;-73
2022/12/01 06:19:57;;;;;;;163.70;52.33;;;;;;;3.74;100.00;102950.69;4989358;28;20211;-73
2022/12/01 06:22:22;;;;;;;159.17;54.17;;;;;;;3.62;100.00;102953.13;4990038;28;20529;-73
2022/12/01 06:24:48;;;;;;;168.87;52.70;;;;;;;3.63;100.00;102954.03;4988797;28;20703;-71
2022/12/01 06:27:13;;;;;;;165.00;53.17;;;;;;;3.61;100.00;102953.00;4977585;28;20196;-73
2022/12/01 06:29:39;;;;;;;156.17;50.97;;;;;;;3.62;100.00;102952.22;4988801;28;20207;-73
2022/12/01 06:32:04;;;;;;;168.13;52.93;;;;;;;3.55;100.00;102957.59;4988667;28;20195;-73
2022/12/01 06:34:30;;;;;;;175.87;53.80;;;;;;;3.59;100.00;102962.13;4989799;28;20203;-73
2022/12/01 06:36:55;;;;;;;174.53;54.60;;;;;;;3.50;100.00;102957.19;4989365;28;20188;-73
2022/12/01 06:39:21;;;;;;;186.97;54.50;;;;;;;3.50;100.00;102964.78;4988489;28;20668;-71
2022/12/01 06:41:46;;;;;;;180.43;54.50;;;;;;;3.54;100.00;102963.41;4988526;28;20183;-72
2022/12/01 06:44:12;;;;;;;167.70;52.83;;;;;;;3.56;100.00;102961.88;4988539;28;20545;-73
2022/12/01 06:46:37;;;;;;;176.83;52.80;;;;;;;3.53;100.00;102971.75;4985237;28;20264;-73
2022/12/01 06:49:03;;;;;;;176.53;54.13;;;;;;;3.51;100.00;102969.13;4985939;28;20188;-73
2022/12/01 06:51:30;;;;;;;190.47;56.27;;;;;;;3.55;100.00;102975.31;4986201;28;20262;-73
2022/12/01 06:53:56;;;;;;;177.50;53.63;;;;;;;3.56;100.00;102979.59;4989845;28;20675;-74
2022/12/01 06:56:22;;;;;;;171.70;53.30;;;;;;;3.58;100.00;102976.44;4989888;28;20187;-72
2022/12/01 06:58:49;;;;;;;189.13;53.47;;;;;;;3.55;100.00;102980.38;4989713;28;20192;-73
2022/12/01 07:01:15;;;;;;;179.50;54.93;;;;;;;3.53;100.00;102985.31;4987542;28;20295;-73
2022/12/01 07:03:40;;;;;;;185.70;54.23;;;;;;;3.53;100.00;102982.78;4987850;28;20288;-73
2022/12/01 07:06:05;;;;;;;187.57;57.27;;;;;;;3.51;100.00;102983.41;4992301;28;20689;-73
2022/12/01 07:08:31;;;;;;;193.37;55.00;;;;;;;3.51;100.00;102986.84;4992479;28;21003;-73
2022/12/01 07:11:01;;;;;;;200.73;55.93;;;;;;;3.47;100.00;102987.34;4990749;28;20207;-71
2022/12/01 07:13:27;;;;;;;193.67;55.17;;;;;;;3.46;100.00;102998.25;4991152;28;20199;-72
2022/12/01 07:15:53;;;;;;;191.03;54.23;;;;;;;3.48;100.00;102988.22;4991112;28;20191;-74
2022/12/01 07:18:18;;;;;;;208.73;55.50;;;;;;;3.39;100.00;102995.06;4989772;28;20203;-73
2022/12/01 07:20:44;;;;;;;212.03;56.80;;;;;;;3.39;100.00;102997.59;4985641;28;20232;-73
2022/12/01 07:23:09;;;;;;;200.87;55.60;;;;;;;3.35;100.00;102991.38;4991869;28;20199;-73
2022/12/01 07:25:35;;;;;;;192.20;54.53;;;;;;;3.37;100.00;102994.97;4985538;28;20215;-73
2022/12/01 07:28:00;;;;;;;204.27;54.87;;;;;;;3.30;100.00;102994.28;4985251;28;20979;-72
2022/12/01 07:30:25;;;;;;;217.07;55.07;;;;;;;3.34;100.00;102991.25;4985146;28;20681;-74
2022/12/01 07:32:51;;;;;;;207.53;54.93;;;;;;;3.36;100.00;103003.28;4984322;28;20282;-73
2022/12/01 07:35:16;;;;;;;216.47;54.90;;;;;;;3.33;100.00;102999.63;4985267;28;20196;-72
2022/12/01 07:37:42;;;;;;;196.07;54.10;;;;;;;3.33;100.00;102999.63;4984821;28;20204;-73
2022/12/01 07:40:09;;;;;;;200.67;56.03;;;;;;;3.25;100.00;103003.16;4992542;28;20212;-74
2022/12/01 07:42:34;;;;;;;246.23;58.13;;;;;;;3.21;100.00;103002.03;4992903;28;20678;-73
2022/12/01 07:45:00;;;;;;;222.30;56.47;;;;;;;3.19;100.00;103001.03;4991684;28;20242;-73
2022/12/01 07:47:25;;;;;;;239.10;58.53;;;;;;;3.18;100.00;103001.75;4992640;28;20192;-72
2022/12/01 07:49:50;;;;;;;230.23;58.50;;;;;;;3.16;100.00;103000.75;4990989;28;20234;-73
2022/12/01 07:52:16;;;;;;;237.23;59.40;;;;;;;3.16;100.00;103005.81;4991086;28;20192;-73
2022/12/01 07:54:41;;;;;;;249.57;61.83;;;;;;;3.21;100.00;103008.72;4993053;28;20202;-72
2022/12/01 07:57:07;;;;;;;253.63;59.43;;;;;;;3.22;100.00;103001.25;4989983;28;20184;-74
2022/12/01 07:59:32;;;;;;;237.53;57.10;;;;;;;3.24;100.00;103003.91;4990766;28;20301;-73
2022/12/01 08:01:57;;;;;;;232.57;57.70;;;;;;;3.24;100.00;103004.81;4990331;28;20672;-73
2022/12/01 08:04:23;;;;;;;239.97;58.03;;;;;;;3.23;100.00;103005.59;4979294;28;20223;-73
2022/12/01 08:06:48;;;;;;;244.30;56.63;;;;;;;3.23;100.00;103007.22;4985811;28;20747;-73
2022/12/01 08:09:14;;;;;;;274.60;58.87;;;;;;;3.24;100.00;103006.44;4986978;28;20191;-72
2022/12/01 08:11:39;;;;;;;257.20;62.93;;;;;;;3.23;100.00;103009.75;4984818;28;20598;-73
2022/12/01 08:14:04;;;;;;;251.57;59.90;;;;;;;3.16;100.00;103005.81;4988021;28;20653;-72
2022/12/01 08:16:30;;;;;;;252.20;59.40;;;;;;;3.21;100.00;103012.16;4990910;28;20267;-73
2022/12/01 08:18:56;;;;;;;243.33;59.17;;;;;;;3.20;100.00;103012.91;4990183;28;20198;-74
2022/12/01 08:21:22;;;;;;;268.37;61.27;;;;;;;3.22;100.00;103023.16;4991626;28;20211;-72
2022/12/01 08:23:52;;;;;;;235.63;56.67;;;;;;;3.22;100.00;103021.50;4992461;28;20191;-74
2022/12/01 08:26:19;;;;;;;250.70;57.83;;;;;;;3.20;100.00;103025.56;4990710;28;20222;-73
2022/12/01 08:28:45;;;;;;;267.10;61.90;;;;;;;3.18;100.00;103022.00;4989900;28;20253;-73
2022/12/01 08:31:16;;;;;;;231.67;57.17;;;;;;;3.12;100.00;103030.75;4989188;28;20350;-72
2022/12/01 08:33:41;;;;;;;248.23;60.87;;;;;;;3.15;100.00;103020.88;4990581;28;20199;-73
2022/12/01 08:36:07;;;;;;;238.67;56.97;;;;;;;3.12;100.00;103029.09;4989854;28;20653;-72
2022/12/01 08:38:33;;;;;;;259.67;57.93;;;;;;;3.09;100.00;103027.97;4990614;28;20953;-73
2022/12/01 08:41:04;;;;;;;248.83;59.60;;;;;;;3.14;100.00;103027.59;4987969;28;20231;-73
2022/12/01 08:43:30;;;;;;;247.77;58.23;;;;;;;3.10;100.00;103034.78;4986299;28;20191;-73
2022/12/01 08:45:59;;;;;;;250.57;57.87;;;;;;;3.13;100.00;103030.84;4989306;28;20705;-73
2022/12/01 08:48:28;;;;;;;257.07;56.30;;;;;;;3.13;100.00;103037.59;5005755;28;20184;-73
2022/12/01 08:51:07;;;;;;;234.80;58.27;;;;;;;3.14;100.00;103030.13;4989585;28;20574;-73
2022/12/01 08:53:34;;;;;;;240.73;57.53;;;;;;;3.14;100.00;103032.66;4987816;28;20218;-74
2022/12/01 08:56:11;;;;;;;207.20;54.03;;;;;;;3.16;100.00;103033.66;4990571;28;20191;-73
2022/12/01 08:58:37;;;;;;;211.53;53.67;;;;;;;3.12;100.00;103031.63;4992671;28;20657;-73
2022/12/01 09:01:06;;;;;;;219.10;54.43;;;;;;;3.04;100.00;103031.75;4980497;28;20261;-73
2022/12/01 09:03:33;;;;;;;221.13;55.93;;;;;;;3.03;100.00;103035.03;4982984;28;20203;-72
2022/12/01 09:06:07;;;;;;;208.53;51.63;;;;;;;3.08;100.00;103037.19;4986903;28;20215;-72
2022/12/01 09:08:34;;;;;;;207.00;52.33;;;;;;;3.07;100.00;103039.56;4991350;28;20178;-74
2022/12/01 09:11:06;;;;;;;194.33;51.23;;;;;;;3.09;100.00;103045.66;4989143;28;20219;-74
2022/12/01 09:13:33;;;;;;;186.20;49.57;;;;;;;3.13;100.00;103043.50;4991015;28;20214;-74
2022/12/01 09:16:02;;;;;;;173.57;47.33;;;;;;;3.10;100.00;103043.28;4991041;28;20575;-73
2022/12/01 09:18:29;;;;;;;161.97;45.47;;;;;;;3.01;100.00;103044.13;4989338;28;20195;-74
2022/12/01 09:20:54;;;;;;;160.40;46.37;;;;;;;3.04;100.00;103047.78;4989880;28;20215;-73
2022/12/01 09:23:20;;;;;;;146.03;43.50;;;;;;;3.02;100.00;103046.78;4987786;28;20194;-74
2022/12/01 09:25:47;;;;;;;137.30;42.07;;;;;;;3.02;100.00;103044.25;4990045;28;20216;-73
2022/12/01 09:28:12;;;;;;;113.70;38.63;;;;;;;2.92;100.00;103064.50;4990580;28;20214;-73
2022/12/01 09:30:38;;;;;;;115.53;38.43;;;;;;;2.98;100.00;103049.81;4988799;28;20693;-73
2022/12/01 09:33:04;;;;;;;97.37;34.60;;;;;;;2.98;100.00;103056.50;4990339;28;20188;-73
2022/12/01 09:35:30;;;;;;;78.67;31.43;;;;;;;2.97;100.00;103055.63;4990614;28;20184;-72
2022/12/01 09:37:56;;;;;;;79.60;29.67;;;;;;;2.99;100.00;103059.16;4989104;28;20188;-73
2022/12/01 09:40:29;;;;;;;68.13;27.63;;;;;;;2.95;100.00;103053.75;4988872;28;20204;-72
2022/12/01 09:42:55;;;;;;;68.17;28.50;;;;;;;2.99;100.00;103054.13;4989437;28;20192;-72
2022/12/01 09:45:33;;;;;;;63.63;27.33;;;;;;;2.99;100.00;103059.16;4986912;28;20808;-73
2022/12/01 09:48:01;;;;;;;63.37;26.50;;;;;;;3.01;100.00;103055.16;4973066;28;20247;-74
2022/12/01 09:50:29;;;;;;;64.43;27.77;;;;;;;3.04;100.00;103046.94;4987495;28;20274;-73
2022/12/01 09:53:07;;;;;;;63.97;26.30;;;;;;;3.01;100.00;103050.09;4989441;28;20187;-73
2022/12/01 09:55:34;;;;;;;60.67;26.47;;;;;;;3.07;99.77;103055.66;4989648;28;20743;-72
2022/12/01 09:58:02;;;;;;;58.90;25.83;;;;;;;3.09;99.89;103048.19;4989509;28;20196;-74
2022/12/01 10:00:35;;;;;;;53.83;25.33;;;;;;;3.03;100.00;103045.16;4989334;28;20220;-72
2022/12/01 10:03:15;;;;;;;59.93;26.03;;;;;;;2.95;99.87;103046.16;4990079;28;20187;-73
2022/12/01 10:05:47;;;;;;;56.83;26.40;;;;;;;3.03;99.60;103046.03;4989635;28;20294;-73
2022/12/01 10:08:17;;;;;;;60.70;26.43;;;;;;;3.01;99.23;103045.03;4985799;28;20191;-73
2022/12/01 10:10:46;;;;;;;56.47;27.03;;;;;;;3.05;99.40;103047.06;4985823;28;20214;-73
2022/12/01 10:13:31;;;;;;;52.43;24.00;;;;;;;3.03;99.73;103048.56;4987298;28;20286;-72
2022/12/01 10:16:34;;;;;;;57.80;24.63;;;;;;;3.05;99.08;103043.63;4985952;28;20784;-73
2022/12/01 10:19:06;;;;;;;53.93;25.30;;;;;;;2.97;99.05;103042.09;4988456;28;20329;-73
2022/12/01 10:21:42;;;;;;;55.03;26.27;;;;;;;3.00;99.26;103045.78;4987094;28;20207;-72
2022/12/01 10:24:08;;;;;;;51.03;23.33;;;;;;;3.05;99.18;103036.03;4989773;28;20673;-73
2022/12/01 10:26:44;;;;;;;55.60;24.20;;;;;;;3.08;98.75;103034.66;4988513;28;20273;-73
2022/12/01 10:29:25;;;;;;;57.10;25.90;;;;;;;3.10;99.23;103039.84;4987839;28;20191;-74
2022/12/01 10:31:58;;;;;;;53.97;24.27;;;;;;;3.16;99.43;103033.66;4989566;28;20180;-73
2022/12/01 10:34:28;;;;;;;56.13;25.03;;;;;;;3.13;99.15;103028.31;4990067;28;20779;-74
2022/12/01 10:36:54;;;;;;;64.77;29.00;;;;;;;3.05;98.64;103024.28;4987221;28;20191;-73
2022/12/01 10:39:30;;;;;;;60.23;30.00;;;;;;;3.10;98.84;103028.09;4990181;28;20195;-73
2022/12/01 10:42:10;;;;;;;58.67;28.47;;;;;;;3.13;98.63;103025.78;4992473;28;20195;-72
2022/12/01 10:44:36;;;;;;;63.97;27.63;;;;;;;3.16;98.74;103030.22;4991263;28;20227;-73
2022/12/01 10:47:02;;;;;;;54.37;26.70;;;;;;;3.20;98.92;103027.19;4969296;28;20578;-74
2022/12/01 10:49:39;;;;;;;57.17;25.90;;;;;;;3.23;98.80;103018.25;4994869;28;20191;-74
2022/12/01 10:52:06;;;;;;;54.20;25.43;;;;;;;3.23;98.78;103023.31;4991748;28;20842;-73
2022/12/01 10:54:40;;;;;;;57.33;26.53;;;;;;;3.23;98.66;103025.84;4993235;28;20196;-72
2022/12/01 10:57:14;;;;;;;52.20;24.10;;;;;;;3.23;99.00;103022.41;4992133;28;20277;-73
2022/12/01 10:59:58;;;;;;;57.63;24.93;;;;;;;3.18;98.13;103026.19;4991278;28;20609;-71
2022/12/01 11:02:26;;;;;;;54.80;24.13;;;;;;;3.25;98.92;103021.78;4989296;28;20375;-72
2022/12/01 11:04:59;;;;;;;52.67;24.03;;;;;;;3.27;98.65;103025.31;4990642;28;20196;-73
2022/12/01 11:07:33;;;;;;;54.80;23.00;;;;;;;3.27;98.26;103020.25;4991698;28;20206;-73
2022/12/01 11:10:19;;;;;;;53.07;23.80;;;;;;;3.28;97.95;103016.06;4993676;28;20610;-73
2022/12/01 11:12:55;;;;;;;52.07;23.60;;;;;;;3.37;97.55;103015.22;4994858;28;20207;-73
2022/12/01 11:15:26;;;;;;;55.37;23.93;;;;;;;3.26;97.47;103017.59;4994135;28;20175;-73
2022/12/01 11:17:58;;;;;;;52.57;24.03;;;;;;;3.25;97.53;103010.75;4993098;28;20223;-73
2022/12/01 11:20:30;;;;;;;65.17;26.83;;;;;;;3.24;97.61;103012.41;4993284;28;20226;-73
2022/12/01 11:23:19;;;;;;;56.33;23.27;;;;;;;3.27;98.40;103002.53;4989522;28;20271;-74
2022/12/01 11:26:05;;;;;;;60.97;26.53;;;;;;;3.24;98.37;103009.88;5000079;28;20216;-73